createdAt,value
2018-06-11T00:00:40.925Z,14.47
2018-06-11T00:03:09.868Z,15.17
2018-06-11T00:05:41.842Z,15.50
2018-06-11T00:08:13.971Z,13.63
2018-06-11T00:10:48.049Z,12.80
2018-06-11T00:13:16.910Z,11.73
2018-06-11T00:15:45.934Z,11.80
2018-06-11T00:18:14.999Z,12.80
2018-06-11T00:20:44.075Z,12.50
2018-06-11T00:23:17.924Z,10.70
2018-06-11T00:25:48.231Z,10.63
2018-06-11T00:28:23.993Z,10.43
2018-06-11T00:30:52.823Z,10.47
2018-06-11T00:33:21.748Z,10.03
2018-06-11T00:35:50.574Z,10.23
2018-06-11T00:38:19.669Z,10.10
2018-06-11T00:40:52.829Z,10.23
2018-06-11T00:43:25.849Z,9.30
2018-06-11T00:45:56.044Z,9.60
2018-06-11T00:48:25.058Z,9.47
2018-06-11T00:50:53.826Z,9.43
2018-06-11T00:53:22.735Z,9.67
2018-06-11T00:56:07.762Z,9.30
2018-06-11T00:58:41.412Z,9.33
2018-06-11T01:01:13.127Z,8.40
2018-06-11T01:03:49.857Z,8.60
2018-06-11T01:06:18.817Z,9.10
2018-06-11T01:08:47.550Z,9.47
2018-06-11T01:11:16.776Z,9.27
2018-06-11T01:13:48.688Z,9.57
2018-06-11T01:16:20.536Z,10.10
2018-06-11T01:18:52.744Z,9.10
2018-06-11T01:21:21.578Z,8.93
2018-06-11T01:23:50.386Z,8.63
2018-06-11T01:26:19.260Z,9.13
2018-06-11T01:28:48.310Z,9.63
2018-06-11T01:31:18.740Z,9.50
2018-06-11T01:33:49.774Z,8.90
2018-06-11T01:36:20.516Z,9.00
2018-06-11T01:38:49.461Z,9.60
2018-06-11T01:41:18.326Z,10.27
2018-06-11T01:43:47.173Z,10.37
2018-06-11T01:46:16.802Z,10.47
2018-06-11T01:48:48.074Z,11.40
2018-06-11T01:51:21.087Z,11.27
2018-06-11T01:53:52.470Z,10.33
2018-06-11T01:56:21.247Z,10.83
2018-06-11T01:58:50.116Z,11.47
2018-06-11T02:01:18.902Z,12.13
2018-06-11T02:03:48.038Z,11.43
2018-06-11T02:06:20.508Z,11.40
2018-06-11T02:08:53.091Z,10.63
2018-06-11T02:11:25.433Z,10.57
2018-06-11T02:13:54.300Z,11.30
2018-06-11T02:16:23.118Z,11.90
2018-06-11T02:18:52.091Z,11.77
2018-06-11T02:21:21.635Z,10.60
2018-06-11T02:23:52.695Z,10.73
2018-06-11T02:26:24.026Z,11.47
2018-06-11T02:28:55.894Z,11.00
2018-06-11T02:31:24.858Z,10.90
2018-06-11T02:33:53.646Z,11.90
2018-06-11T02:36:22.641Z,12.43
2018-06-11T02:38:52.288Z,12.50
2018-06-11T02:41:22.117Z,12.87
2018-06-11T02:43:56.996Z,10.80
2018-06-11T02:46:28.977Z,11.80
2018-06-11T02:48:57.744Z,12.43
2018-06-11T02:51:26.663Z,12.60
2018-06-11T02:53:55.662Z,11.50
2018-06-11T02:56:27.071Z,12.23
2018-06-11T02:58:57.863Z,13.00
2018-06-11T03:01:28.711Z,13.90
2018-06-11T03:04:01.946Z,13.50
2018-06-11T03:06:30.827Z,14.60
2018-06-11T03:08:59.914Z,13.83
2018-06-11T03:11:28.908Z,13.30
2018-06-11T03:14:00.127Z,13.00
2018-06-11T03:16:32.151Z,15.27
2018-06-11T03:19:04.043Z,17.27
2018-06-11T03:21:32.854Z,16.73
2018-06-11T03:24:01.619Z,16.63
2018-06-11T03:26:30.519Z,16.57
2018-06-11T03:28:59.771Z,13.63
2018-06-11T03:31:32.257Z,12.77
2018-06-11T03:34:04.233Z,13.40
2018-06-11T03:36:36.356Z,13.97
2018-06-11T03:39:08.241Z,14.27
2018-06-11T03:41:37.574Z,14.23
2018-06-11T03:44:06.345Z,14.10
2018-06-11T03:46:35.495Z,15.23
2018-06-11T03:49:08.387Z,15.50
2018-06-11T03:51:38.664Z,14.77
2018-06-11T03:54:11.669Z,15.47
2018-06-11T03:56:40.495Z,15.50
2018-06-11T03:59:23.110Z,14.87
2018-06-11T04:01:52.083Z,14.90
2018-06-11T04:04:27.768Z,15.97
2018-06-11T04:07:00.060Z,14.80
2018-06-11T04:16:58.177Z,14.60
2018-06-11T04:19:27.193Z,13.70
2018-06-11T04:21:57.446Z,14.20
2018-06-11T04:24:28.264Z,14.37
2018-06-11T04:26:58.609Z,14.30
2018-06-11T04:29:32.381Z,15.13
2018-06-11T04:32:01.184Z,14.07
2018-06-11T04:34:30.042Z,14.90
2018-06-11T04:36:59.074Z,14.17
2018-06-11T04:39:30.027Z,14.27
2018-06-11T04:42:00.249Z,15.23
2018-06-11T04:44:32.718Z,13.87
2018-06-11T04:47:01.602Z,15.20
2018-06-11T04:49:30.374Z,13.80
2018-06-11T04:52:00.218Z,13.33
2018-06-11T04:54:29.439Z,13.70
2018-06-11T04:56:58.767Z,13.83
2018-06-11T04:59:28.088Z,14.40
2018-06-11T05:01:58.418Z,13.60
2018-06-11T05:04:27.306Z,14.80
2018-06-11T05:06:56.434Z,13.83
2018-06-11T05:09:25.250Z,14.53
2018-06-11T05:11:54.459Z,13.23
2018-06-11T05:14:24.006Z,13.47
2018-06-11T05:16:53.731Z,13.60
2018-06-11T05:19:25.740Z,13.67
2018-06-11T05:21:54.558Z,13.23
2018-06-11T05:24:23.491Z,14.90
2018-06-11T05:26:52.399Z,14.37
2018-06-11T05:29:21.662Z,14.43
2018-06-11T05:31:52.020Z,14.07
2018-06-11T05:34:22.007Z,14.73
2018-06-11T05:36:51.679Z,14.60
2018-06-11T05:39:20.390Z,15.07
2018-06-11T05:41:49.671Z,13.97
2018-06-11T05:44:18.505Z,14.77
2018-06-11T05:46:49.150Z,14.03
2018-06-11T05:49:24.852Z,14.97
2018-06-11T05:51:58.079Z,14.03
2018-06-11T05:54:29.959Z,14.33
2018-06-11T05:56:58.819Z,12.90
2018-06-11T05:59:27.862Z,14.10
2018-06-11T06:01:57.097Z,14.93
2018-06-11T06:04:29.877Z,14.53
2018-06-11T06:07:06.083Z,15.70
2018-06-11T06:09:40.751Z,15.47
2018-06-11T06:12:09.746Z,15.70
2018-06-11T06:14:38.738Z,15.70
2018-06-11T06:17:07.758Z,16.63
2018-06-11T06:19:36.708Z,17.30
2018-06-11T06:22:12.510Z,17.57
2018-06-11T06:24:46.015Z,18.47
2018-06-11T06:27:21.657Z,18.43
2018-06-11T06:29:50.459Z,17.43
2018-06-11T06:32:19.630Z,16.93
2018-06-11T06:34:48.621Z,18.77
2018-06-11T06:37:18.346Z,17.80
2018-06-11T06:39:51.745Z,16.93
2018-06-11T06:42:24.628Z,17.97
2018-06-11T06:44:57.553Z,16.60
2018-06-11T06:47:26.454Z,17.20
2018-06-11T06:49:55.594Z,17.37
2018-06-11T06:52:24.397Z,16.27
2018-06-11T06:54:54.786Z,17.10
2018-06-11T06:57:26.105Z,17.33
2018-06-11T06:59:56.345Z,17.83
2018-06-11T07:02:26.557Z,20.07
2018-06-11T07:04:56.112Z,20.53
2018-06-11T07:07:24.986Z,20.43
2018-06-11T07:09:53.918Z,20.17
2018-06-11T07:12:23.211Z,20.10
2018-06-11T07:14:53.472Z,19.00
2018-06-11T07:17:25.501Z,18.20
2018-06-11T07:19:54.860Z,17.03
2018-06-11T07:22:23.864Z,17.33
2018-06-11T07:24:52.609Z,16.40
2018-06-11T07:27:21.606Z,16.23
2018-06-11T07:29:50.814Z,16.93
2018-06-11T07:32:20.035Z,16.47
2018-06-11T07:34:49.427Z,16.63
2018-06-11T07:38:11.011Z,15.43
2018-06-11T07:40:39.883Z,15.27
2018-06-11T07:43:08.717Z,15.77
2018-06-11T07:45:37.682Z,16.17
2018-06-11T07:48:06.876Z,15.30
2018-06-11T07:57:29.999Z,14.00
2018-06-11T07:59:58.935Z,13.93
2018-06-11T08:02:28.170Z,14.80
2018-06-11T08:04:57.463Z,14.03
2018-06-11T08:07:26.601Z,13.60
2018-06-11T08:09:56.380Z,13.00
2018-06-11T08:12:25.401Z,12.90
2018-06-11T08:14:54.410Z,13.20
2018-06-11T08:17:23.592Z,13.10
2018-06-11T08:19:52.781Z,12.63
2018-06-11T08:31:30.188Z,8.63
2018-06-11T08:33:59.291Z,8.93
2018-06-11T13:49:57.179Z,3.67
2018-06-11T13:52:26.258Z,3.87
2018-06-11T13:54:55.259Z,3.70
2018-06-11T14:09:37.440Z,3.77
2018-06-11T14:12:07.115Z,4.63
2018-06-11T14:14:36.772Z,4.97
2018-06-11T14:26:21.999Z,5.63
2018-06-11T14:28:52.125Z,6.23
2018-06-11T14:31:23.028Z,6.67
2018-06-11T14:43:22.415Z,7.13
2018-06-11T14:45:53.055Z,7.30
2018-06-11T14:48:22.869Z,8.20
2018-06-11T15:03:04.835Z,7.70
2018-06-11T15:05:34.068Z,6.60
2018-06-11T15:20:21.854Z,5.90
2018-06-11T15:22:52.811Z,6.80
2018-06-11T15:37:34.492Z,7.53
2018-06-11T15:40:03.698Z,7.57
2018-06-11T15:42:38.284Z,6.73
2018-06-11T16:18:42.360Z,5.50
2018-06-11T16:21:12.461Z,4.80
2018-06-11T16:23:45.325Z,5.17
2018-06-11T16:26:24.666Z,4.63
2018-06-11T16:29:15.599Z,5.10
2018-06-11T16:31:45.680Z,4.80
2018-06-11T16:34:14.763Z,5.00
2018-06-11T16:36:44.104Z,4.70
2018-06-11T16:45:21.134Z,4.87
2018-06-11T16:48:04.077Z,4.60
2018-06-11T16:53:37.472Z,4.70
2018-06-11T16:56:24.142Z,4.30
2018-06-11T16:59:49.589Z,4.13
2018-06-11T17:05:09.884Z,4.27
2018-06-11T17:07:41.338Z,4.30
2018-06-11T17:10:16.182Z,4.43
2018-06-11T17:12:48.087Z,4.30
2018-06-11T17:18:25.943Z,4.47
2018-06-11T17:24:05.294Z,4.30
2018-06-11T17:29:52.822Z,4.33
2018-06-11T17:35:17.984Z,4.00
2018-06-11T17:37:52.980Z,4.53
2018-06-11T17:43:29.971Z,4.00
2018-06-11T17:46:21.561Z,4.10
2018-06-11T17:49:00.652Z,4.00
2018-06-11T17:54:24.673Z,3.90
2018-06-11T17:57:01.948Z,3.90
2018-06-11T17:59:33.298Z,4.10
2018-06-11T18:02:02.189Z,4.10
2018-06-11T18:04:31.107Z,3.63
2018-06-11T18:07:00.291Z,3.70
2018-06-11T18:09:32.608Z,4.30
2018-06-11T18:12:08.486Z,4.00
2018-06-11T18:14:45.106Z,3.90
2018-06-11T18:17:20.210Z,4.00
2018-06-11T18:19:57.395Z,4.10
2018-06-11T18:22:29.929Z,3.77
2018-06-11T18:25:01.351Z,3.80
2018-06-11T18:27:36.450Z,3.87
2018-06-11T18:30:09.644Z,3.80
2018-06-11T18:32:44.245Z,3.77
2018-06-11T18:35:17.352Z,4.00
2018-06-11T18:37:48.741Z,3.80
2018-06-11T18:40:21.712Z,3.80
2018-06-11T18:42:53.872Z,3.70
2018-06-11T18:45:22.812Z,4.00
2018-06-11T18:47:51.629Z,3.83
2018-06-11T18:50:20.595Z,3.30
2018-06-11T18:52:50.657Z,4.17
2018-06-11T18:55:20.542Z,3.67
2018-06-11T18:57:53.556Z,3.60
2018-06-11T19:00:24.687Z,3.60
2018-06-11T19:02:54.945Z,3.57
2018-06-11T19:05:26.363Z,3.50
2018-06-11T19:08:01.111Z,3.43
2018-06-11T19:10:50.479Z,3.60
2018-06-11T19:15:59.041Z,3.40
2018-06-11T19:18:28.423Z,3.60
2018-06-11T19:20:57.464Z,3.57
2018-06-11T19:23:32.590Z,3.20
2018-06-11T19:34:56.869Z,3.60
2018-06-11T19:43:58.351Z,3.60
2018-06-11T19:46:27.718Z,3.23
2018-06-11T19:48:56.936Z,3.37
2018-06-11T19:51:29.831Z,3.43
2018-06-11T20:03:22.157Z,3.30
2018-06-11T20:06:04.272Z,3.20
2018-06-11T20:08:45.354Z,3.57
2018-06-11T20:11:22.294Z,3.43
2018-06-11T20:22:09.696Z,3.30
2018-06-11T20:24:38.502Z,3.60
2018-06-11T20:27:07.497Z,3.10
2018-06-11T20:29:39.264Z,3.43
2018-06-11T20:32:21.373Z,3.60
2018-06-11T20:43:32.785Z,3.70
2018-06-11T20:46:05.977Z,3.40
2018-06-11T20:48:50.083Z,3.47
2018-06-11T20:51:25.249Z,3.40
2018-06-11T20:54:09.471Z,3.60
2018-06-11T20:56:53.592Z,3.33
2018-06-11T21:02:21.918Z,3.33
2018-06-11T21:04:53.655Z,3.30
2018-06-11T21:07:26.490Z,3.20
2018-06-11T21:09:55.391Z,3.27
2018-06-11T21:12:24.251Z,3.10
2018-06-11T21:14:53.307Z,3.17
2018-06-11T21:17:23.516Z,3.20
2018-06-11T21:38:53.879Z,3.00
2018-06-11T21:41:22.869Z,3.00
2018-06-11T21:43:51.998Z,2.80
2018-06-11T21:46:21.157Z,2.90
2018-06-11T21:48:50.379Z,3.00
2018-06-11T21:55:00.604Z,3.23
2018-06-11T22:00:53.035Z,3.30
2018-06-11T22:03:32.517Z,2.80
2018-06-11T22:06:13.341Z,2.87
2018-06-11T22:08:50.424Z,2.93
2018-06-11T22:14:07.476Z,3.20
2018-06-11T22:16:40.628Z,3.03
2018-06-11T22:19:13.876Z,3.23
2018-06-11T22:21:45.652Z,2.77
2018-06-11T22:24:18.480Z,3.30
2018-06-11T22:26:47.380Z,3.03
2018-06-11T22:29:16.404Z,2.90
2018-06-11T22:31:45.378Z,3.20
2018-06-11T22:34:14.467Z,3.37
2018-06-11T22:36:49.814Z,3.20
2018-06-11T22:42:17.160Z,3.10
2018-06-11T22:56:57.470Z,3.07
2018-06-11T22:59:37.969Z,4.00
2018-06-11T23:02:17.773Z,3.20
2018-06-11T23:04:56.339Z,3.47
2018-06-11T23:10:24.768Z,3.33
2018-06-11T23:13:12.796Z,3.27
2018-06-11T23:15:54.566Z,3.20
2018-06-11T23:18:41.114Z,3.57
2018-06-11T23:21:22.156Z,3.73
2018-06-11T23:24:05.758Z,3.40
2018-06-11T23:29:36.678Z,3.80
2018-06-11T23:35:16.457Z,3.60
2018-06-11T23:37:49.896Z,3.50
2018-06-11T23:51:34.547Z,3.70
2018-06-11T23:54:03.451Z,3.50
2018-06-11T23:56:32.262Z,3.80
2018-06-11T23:59:05.867Z,4.23
